sensor_id;sensor_type;location;lat;lon;timestamp;temperature;humidity
33863;DHT22;20158;51.436;-2.742;2023-06-22T00:01:01;22.10;59.70
33863;DHT22;20158;51.436;-2.742;2023-06-22T00:03:27;22.00;59.50
33863;DHT22;20158;51.436;-2.742;2023-06-22T00:05:53;22.00;59.60
33863;DHT22;20158;51.436;-2.742;2023-06-22T00:08:19;22.00;59.70
33863;DHT22;20158;51.436;-2.742;2023-06-22T00:10:46;21.90;59.60
33863;DHT22;20158;51.436;-2.742;2023-06-22T00:13:13;21.90;59.70
33863;DHT22;20158;51.436;-2.742;2023-06-22T00:15:43;21.90;59.90
33863;DHT22;20158;51.436;-2.742;2023-06-22T00:18:10;21.90;59.90
33863;DHT22;20158;51.436;-2.742;2023-06-22T00:20:45;21.90;60.00
33863;DHT22;20158;51.436;-2.742;2023-06-22T00:23:11;21.80;59.90
33863;DHT22;20158;51.436;-2.742;2023-06-22T00:25:38;21.80;60.00
33863;DHT22;20158;51.436;-2.742;2023-06-22T00:28:07;21.70;60.40
33863;DHT22;20158;51.436;-2.742;2023-06-22T00:30:35;21.70;60.00
33863;DHT22;20158;51.436;-2.742;2023-06-22T00:33:01;21.70;60.10
33863;DHT22;20158;51.436;-2.742;2023-06-22T00:35:28;21.60;60.00
33863;DHT22;20158;51.436;-2.742;2023-06-22T00:37:56;21.60;60.10
33863;DHT22;20158;51.436;-2.742;2023-06-22T00:40:32;21.60;60.20
33863;DHT22;20158;51.436;-2.742;2023-06-22T00:42:59;21.60;60.20
33863;DHT22;20158;51.436;-2.742;2023-06-22T00:45:26;21.60;60.30
33863;DHT22;20158;51.436;-2.742;2023-06-22T00:47:53;21.60;60.30
33863;DHT22;20158;51.436;-2.742;2023-06-22T00:50:23;21.50;60.20
33863;DHT22;20158;51.436;-2.742;2023-06-22T00:52:56;21.50;60.30
33863;DHT22;20158;51.436;-2.742;2023-06-22T00:55:26;21.50;60.40
33863;DHT22;20158;51.436;-2.742;2023-06-22T00:57:53;21.50;60.30
33863;DHT22;20158;51.436;-2.742;2023-06-22T01:00:23;21.40;60.20
33863;DHT22;20158;51.436;-2.742;2023-06-22T01:02:54;21.40;60.30
33863;DHT22;20158;51.436;-2.742;2023-06-22T01:05:21;21.40;60.30
33863;DHT22;20158;51.436;-2.742;2023-06-22T01:08:08;21.40;60.50
33863;DHT22;20158;51.436;-2.742;2023-06-22T01:16:18;21.30;60.50
33863;DHT22;20158;51.436;-2.742;2023-06-22T01:18:48;21.30;60.60
33863;DHT22;20158;51.436;-2.742;2023-06-22T01:21:19;21.20;60.40
33863;DHT22;20158;51.436;-2.742;2023-06-22T01:23:58;21.20;60.50
33863;DHT22;20158;51.436;-2.742;2023-06-22T01:29:29;21.10;60.70
33863;DHT22;20158;51.436;-2.742;2023-06-22T01:31:56;21.10;60.70
33863;DHT22;20158;51.436;-2.742;2023-06-22T01:34:23;21.10;60.70
33863;DHT22;20158;51.436;-2.742;2023-06-22T01:36:51;21.10;60.80
33863;DHT22;20158;51.436;-2.742;2023-06-22T01:39:18;21.00;60.80
33863;DHT22;20158;51.436;-2.742;2023-06-22T01:41:45;20.90;60.70
33863;DHT22;20158;51.436;-2.742;2023-06-22T01:44:15;20.90;60.70
33863;DHT22;20158;51.436;-2.742;2023-06-22T01:46:44;20.90;60.80
33863;DHT22;20158;51.436;-2.742;2023-06-22T01:49:11;20.90;60.90
33863;DHT22;20158;51.436;-2.742;2023-06-22T01:51:37;20.80;60.80
33863;DHT22;20158;51.436;-2.742;2023-06-22T01:54:06;20.80;60.90
33863;DHT22;20158;51.436;-2.742;2023-06-22T01:56:33;20.80;61.00
33863;DHT22;20158;51.436;-2.742;2023-06-22T02:01:36;20.70;61.00
33863;DHT22;20158;51.436;-2.742;2023-06-22T02:04:12;20.70;61.00
33863;DHT22;20158;51.436;-2.742;2023-06-22T02:06:42;20.70;61.10
33863;DHT22;20158;51.436;-2.742;2023-06-22T02:09:16;20.70;61.10
33863;DHT22;20158;51.436;-2.742;2023-06-22T02:11:45;20.60;61.00
33863;DHT22;20158;51.436;-2.742;2023-06-22T02:14:17;20.60;61.10
33863;DHT22;20158;51.436;-2.742;2023-06-22T02:16:44;20.60;61.10
33863;DHT22;20158;51.436;-2.742;2023-06-22T02:19:10;20.60;61.20
33863;DHT22;20158;51.436;-2.742;2023-06-22T02:21:36;20.60;61.20
33863;DHT22;20158;51.436;-2.742;2023-06-22T02:24:04;20.60;61.30
33863;DHT22;20158;51.436;-2.742;2023-06-22T02:26:31;20.50;61.20
33863;DHT22;20158;51.436;-2.742;2023-06-22T02:29:00;20.50;61.20
33863;DHT22;20158;51.436;-2.742;2023-06-22T02:31:26;20.50;61.30
33863;DHT22;20158;51.436;-2.742;2023-06-22T02:33:59;20.50;61.40
33863;DHT22;20158;51.436;-2.742;2023-06-22T02:36:25;20.40;61.20
33863;DHT22;20158;51.436;-2.742;2023-06-22T02:38:53;20.40;61.30
33863;DHT22;20158;51.436;-2.742;2023-06-22T02:41:19;20.40;61.40
33863;DHT22;20158;51.436;-2.742;2023-06-22T02:43:46;20.40;61.40
33863;DHT22;20158;51.436;-2.742;2023-06-22T02:46:13;20.30;61.30
33863;DHT22;20158;51.436;-2.742;2023-06-22T02:48:41;20.30;61.40
33863;DHT22;20158;51.436;-2.742;2023-06-22T02:51:08;20.30;61.50
33863;DHT22;20158;51.436;-2.742;2023-06-22T02:53:36;20.30;61.60
33863;DHT22;20158;51.436;-2.742;2023-06-22T02:56:02;20.20;61.50
33863;DHT22;20158;51.436;-2.742;2023-06-22T02:58:32;20.20;61.60
33863;DHT22;20158;51.436;-2.742;2023-06-22T03:01:08;20.20;61.60
33863;DHT22;20158;51.436;-2.742;2023-06-22T03:03:39;20.20;61.70
33863;DHT22;20158;51.436;-2.742;2023-06-22T03:06:06;20.10;61.60
33863;DHT22;20158;51.436;-2.742;2023-06-22T03:08:32;20.10;61.60
33863;DHT22;20158;51.436;-2.742;2023-06-22T03:10:59;20.10;61.70
33863;DHT22;20158;51.436;-2.742;2023-06-22T03:13:25;20.10;61.70
33863;DHT22;20158;51.436;-2.742;2023-06-22T03:15:54;20.10;61.80
33863;DHT22;20158;51.436;-2.742;2023-06-22T03:18:20;20.00;62.20
33863;DHT22;20158;51.436;-2.742;2023-06-22T03:20:48;20.00;61.70
33863;DHT22;20158;51.436;-2.742;2023-06-22T03:23:14;20.00;61.80
33863;DHT22;20158;51.436;-2.742;2023-06-22T03:25:41;20.00;61.90
33863;DHT22;20158;51.436;-2.742;2023-06-22T03:28:07;19.90;61.70
33863;DHT22;20158;51.436;-2.742;2023-06-22T03:30:33;19.90;61.80
33863;DHT22;20158;51.436;-2.742;2023-06-22T03:33:00;19.90;61.80
33863;DHT22;20158;51.436;-2.742;2023-06-22T03:35:27;19.90;61.90
33863;DHT22;20158;51.436;-2.742;2023-06-22T03:37:53;19.90;62.00
33863;DHT22;20158;51.436;-2.742;2023-06-22T03:40:20;19.80;61.80
33863;DHT22;20158;51.436;-2.742;2023-06-22T03:43:06;19.80;61.90
33863;DHT22;20158;51.436;-2.742;2023-06-22T03:45:32;19.70;61.80
33863;DHT22;20158;51.436;-2.742;2023-06-22T03:48:01;19.70;61.80
33863;DHT22;20158;51.436;-2.742;2023-06-22T03:50:27;19.70;61.90
33863;DHT22;20158;51.436;-2.742;2023-06-22T03:52:54;19.70;61.90
33863;DHT22;20158;51.436;-2.742;2023-06-22T03:55:20;19.70;62.00
33863;DHT22;20158;51.436;-2.742;2023-06-22T03:57:46;19.60;61.90
33863;DHT22;20158;51.436;-2.742;2023-06-22T04:00:12;19.60;61.90
33863;DHT22;20158;51.436;-2.742;2023-06-22T04:02:40;19.60;62.00
33863;DHT22;20158;51.436;-2.742;2023-06-22T04:05:08;19.60;62.00
33863;DHT22;20158;51.436;-2.742;2023-06-22T04:07:34;19.60;62.60
33863;DHT22;20158;51.436;-2.742;2023-06-22T04:10:04;19.50;61.90
33863;DHT22;20158;51.436;-2.742;2023-06-22T04:12:30;19.50;62.00
33863;DHT22;20158;51.436;-2.742;2023-06-22T04:14:56;19.50;62.00
33863;DHT22;20158;51.436;-2.742;2023-06-22T04:17:22;19.50;62.10
33863;DHT22;20158;51.436;-2.742;2023-06-22T04:19:51;19.50;62.10
33863;DHT22;20158;51.436;-2.742;2023-06-22T04:22:17;19.50;62.10
33863;DHT22;20158;51.436;-2.742;2023-06-22T04:24:46;19.40;62.00
33863;DHT22;20158;51.436;-2.742;2023-06-22T04:27:15;19.40;62.00
33863;DHT22;20158;51.436;-2.742;2023-06-22T04:29:41;19.40;62.00
33863;DHT22;20158;51.436;-2.742;2023-06-22T04:32:15;19.40;62.00
33863;DHT22;20158;51.436;-2.742;2023-06-22T04:34:42;19.40;62.00
33863;DHT22;20158;51.436;-2.742;2023-06-22T04:37:09;19.40;62.10
33863;DHT22;20158;51.436;-2.742;2023-06-22T04:39:35;19.40;62.10
33863;DHT22;20158;51.436;-2.742;2023-06-22T04:42:01;19.40;62.10
33863;DHT22;20158;51.436;-2.742;2023-06-22T04:44:28;19.50;62.30
33863;DHT22;20158;51.436;-2.742;2023-06-22T04:46:59;19.40;62.10
33863;DHT22;20158;51.436;-2.742;2023-06-22T04:49:30;19.50;62.30
33863;DHT22;20158;51.436;-2.742;2023-06-22T04:52:01;19.50;62.20
33863;DHT22;20158;51.436;-2.742;2023-06-22T04:54:34;19.50;62.20
33863;DHT22;20158;51.436;-2.742;2023-06-22T04:57:02;19.50;62.20
33863;DHT22;20158;51.436;-2.742;2023-06-22T04:59:31;19.50;62.20
33863;DHT22;20158;51.436;-2.742;2023-06-22T05:01:58;19.50;62.20
33863;DHT22;20158;51.436;-2.742;2023-06-22T05:04:25;19.50;62.10
33863;DHT22;20158;51.436;-2.742;2023-06-22T05:06:52;19.60;62.30
33863;DHT22;20158;51.436;-2.742;2023-06-22T05:09:18;19.50;62.10
33863;DHT22;20158;51.436;-2.742;2023-06-22T05:11:45;19.60;62.30
33863;DHT22;20158;51.436;-2.742;2023-06-22T05:14:11;19.60;62.20
33863;DHT22;20158;51.436;-2.742;2023-06-22T05:16:38;19.60;62.20
33863;DHT22;20158;51.436;-2.742;2023-06-22T05:19:05;19.70;62.30
33863;DHT22;20158;51.436;-2.742;2023-06-22T05:21:31;19.70;62.20
33863;DHT22;20158;51.436;-2.742;2023-06-22T05:23:58;19.80;62.30
33863;DHT22;20158;51.436;-2.742;2023-06-22T05:26:29;19.80;62.30
33863;DHT22;20158;51.436;-2.742;2023-06-22T05:29:00;19.90;62.30
33863;DHT22;20158;51.436;-2.742;2023-06-22T05:31:27;20.00;62.30
33863;DHT22;20158;51.436;-2.742;2023-06-22T05:33:54;20.00;62.20
33863;DHT22;20158;51.436;-2.742;2023-06-22T05:36:21;20.10;62.20
33863;DHT22;20158;51.436;-2.742;2023-06-22T05:38:51;20.20;62.30
33863;DHT22;20158;51.436;-2.742;2023-06-22T05:41:18;20.30;62.80
33863;DHT22;20158;51.436;-2.742;2023-06-22T05:43:44;20.40;62.30
33863;DHT22;20158;51.436;-2.742;2023-06-22T05:46:10;20.60;62.50
33863;DHT22;20158;51.436;-2.742;2023-06-22T05:48:36;20.70;62.50
33863;DHT22;20158;51.436;-2.742;2023-06-22T05:51:02;20.80;62.40
33863;DHT22;20158;51.436;-2.742;2023-06-22T05:53:28;21.00;62.60
33863;DHT22;20158;51.436;-2.742;2023-06-22T05:55:58;21.10;62.50
33863;DHT22;20158;51.436;-2.742;2023-06-22T05:58:24;21.30;62.70
33863;DHT22;20158;51.436;-2.742;2023-06-22T06:00:50;21.50;62.80
33863;DHT22;20158;51.436;-2.742;2023-06-22T06:03:16;21.70;63.00
33863;DHT22;20158;51.436;-2.742;2023-06-22T06:05:43;21.80;62.90
33863;DHT22;20158;51.436;-2.742;2023-06-22T06:08:10;22.00;63.00
33863;DHT22;20158;51.436;-2.742;2023-06-22T06:10:37;22.30;63.20
33863;DHT22;20158;51.436;-2.742;2023-06-22T06:13:03;22.50;63.30
33863;DHT22;20158;51.436;-2.742;2023-06-22T06:15:34;22.70;63.30
33863;DHT22;20158;51.436;-2.742;2023-06-22T06:18:00;22.90;63.30
33863;DHT22;20158;51.436;-2.742;2023-06-22T06:20:27;23.20;63.50
33863;DHT22;20158;51.436;-2.742;2023-06-22T06:22:54;23.30;63.30
33863;DHT22;20158;51.436;-2.742;2023-06-22T06:25:20;23.60;63.40
33863;DHT22;20158;51.436;-2.742;2023-06-22T06:27:48;23.90;63.50
33863;DHT22;20158;51.436;-2.742;2023-06-22T06:30:18;24.10;63.40
33863;DHT22;20158;51.436;-2.742;2023-06-22T06:32:45;24.50;63.50
33863;DHT22;20158;51.436;-2.742;2023-06-22T06:35:15;24.80;63.40
33863;DHT22;20158;51.436;-2.742;2023-06-22T06:37:43;25.20;63.10
33863;DHT22;20158;51.436;-2.742;2023-06-22T06:40:11;25.60;62.50
33863;DHT22;20158;51.436;-2.742;2023-06-22T06:42:42;26.00;61.80
33863;DHT22;20158;51.436;-2.742;2023-06-22T06:45:21;26.30;61.10
33863;DHT22;20158;51.436;-2.742;2023-06-22T06:47:52;26.70;60.50
33863;DHT22;20158;51.436;-2.742;2023-06-22T06:50:18;27.00;59.90
33863;DHT22;20158;51.436;-2.742;2023-06-22T06:52:44;27.40;59.30
33863;DHT22;20158;51.436;-2.742;2023-06-22T06:55:11;27.70;58.50
33863;DHT22;20158;51.436;-2.742;2023-06-22T06:57:43;28.10;57.80
33863;DHT22;20158;51.436;-2.742;2023-06-22T07:00:10;28.50;57.00
33863;DHT22;20158;51.436;-2.742;2023-06-22T07:02:39;28.90;56.20
33863;DHT22;20158;51.436;-2.742;2023-06-22T07:05:06;29.30;55.60
33863;DHT22;20158;51.436;-2.742;2023-06-22T07:07:32;29.60;54.80
33863;DHT22;20158;51.436;-2.742;2023-06-22T07:09:59;30.00;54.20
33863;DHT22;20158;51.436;-2.742;2023-06-22T07:12:28;30.30;53.50
33863;DHT22;20158;51.436;-2.742;2023-06-22T07:15:05;30.60;52.90
33863;DHT22;20158;51.436;-2.742;2023-06-22T07:17:34;30.90;52.20
33863;DHT22;20158;51.436;-2.742;2023-06-22T07:20:03;31.20;51.80
33863;DHT22;20158;51.436;-2.742;2023-06-22T07:22:39;31.30;51.50
33863;DHT22;20158;51.436;-2.742;2023-06-22T07:25:06;31.30;51.50
33863;DHT22;20158;51.436;-2.742;2023-06-22T07:27:39;31.30;51.40
33863;DHT22;20158;51.436;-2.742;2023-06-22T07:30:12;31.40;51.40
33863;DHT22;20158;51.436;-2.742;2023-06-22T07:32:39;31.50;51.40
33863;DHT22;20158;51.436;-2.742;2023-06-22T07:35:06;31.80;50.80
33863;DHT22;20158;51.436;-2.742;2023-06-22T07:37:33;32.20;49.70
33863;DHT22;20158;51.436;-2.742;2023-06-22T07:40:00;32.60;48.70
33863;DHT22;20158;51.436;-2.742;2023-06-22T07:42:27;32.90;48.00
33863;DHT22;20158;51.436;-2.742;2023-06-22T07:44:54;33.30;47.40
33863;DHT22;20158;51.436;-2.742;2023-06-22T07:47:20;33.70;46.80
33863;DHT22;20158;51.436;-2.742;2023-06-22T07:49:50;34.00;46.20
33863;DHT22;20158;51.436;-2.742;2023-06-22T07:52:20;34.50;45.60
33863;DHT22;20158;51.436;-2.742;2023-06-22T07:54:52;35.00;45.00
33863;DHT22;20158;51.436;-2.742;2023-06-22T07:57:19;35.30;44.30
33863;DHT22;20158;51.436;-2.742;2023-06-22T07:59:45;35.70;43.90
33863;DHT22;20158;51.436;-2.742;2023-06-22T08:02:11;36.00;43.40
33863;DHT22;20158;51.436;-2.742;2023-06-22T08:04:41;36.10;43.20
33863;DHT22;20158;51.436;-2.742;2023-06-22T08:07:10;36.00;43.50
33863;DHT22;20158;51.436;-2.742;2023-06-22T08:09:36;35.70;43.90
33863;DHT22;20158;51.436;-2.742;2023-06-22T08:12:06;35.40;44.30
33863;DHT22;20158;51.436;-2.742;2023-06-22T08:14:32;35.10;44.60
33863;DHT22;20158;51.436;-2.742;2023-06-22T08:16:58;35.00;45.00
33863;DHT22;20158;51.436;-2.742;2023-06-22T08:19:24;34.70;45.10
33863;DHT22;20158;51.436;-2.742;2023-06-22T08:21:50;34.50;45.40
33863;DHT22;20158;51.436;-2.742;2023-06-22T08:24:17;34.40;45.50
33863;DHT22;20158;51.436;-2.742;2023-06-22T08:26:43;34.30;45.70
33863;DHT22;20158;51.436;-2.742;2023-06-22T08:29:09;34.20;45.70
33863;DHT22;20158;51.436;-2.742;2023-06-22T08:31:35;34.20;45.70
33863;DHT22;20158;51.436;-2.742;2023-06-22T08:34:01;34.10;45.70
33863;DHT22;20158;51.436;-2.742;2023-06-22T08:36:27;34.10;45.70
33863;DHT22;20158;51.436;-2.742;2023-06-22T08:38:58;34.10;45.50
33863;DHT22;20158;51.436;-2.742;2023-06-22T08:41:29;34.00;45.50
33863;DHT22;20158;51.436;-2.742;2023-06-22T08:43:55;34.00;45.50
33863;DHT22;20158;51.436;-2.742;2023-06-22T08:46:22;34.10;45.60
33863;DHT22;20158;51.436;-2.742;2023-06-22T08:48:53;34.10;45.60
33863;DHT22;20158;51.436;-2.742;2023-06-22T08:51:19;34.00;45.40
33863;DHT22;20158;51.436;-2.742;2023-06-22T08:53:47;34.00;45.30
33863;DHT22;20158;51.436;-2.742;2023-06-22T08:56:16;34.00;45.20
33863;DHT22;20158;51.436;-2.742;2023-06-22T08:58:42;34.00;45.10
33863;DHT22;20158;51.436;-2.742;2023-06-22T09:01:08;34.00;45.20
33863;DHT22;20158;51.436;-2.742;2023-06-22T09:03:37;33.90;45.10
33863;DHT22;20158;51.436;-2.742;2023-06-22T09:06:03;33.90;45.10
33863;DHT22;20158;51.436;-2.742;2023-06-22T09:08:29;33.90;45.50
33863;DHT22;20158;51.436;-2.742;2023-06-22T09:10:56;33.90;44.80
33863;DHT22;20158;51.436;-2.742;2023-06-22T09:13:22;33.90;44.60
33863;DHT22;20158;51.436;-2.742;2023-06-22T09:15:52;34.00;44.60
33863;DHT22;20158;51.436;-2.742;2023-06-22T09:18:18;34.10;44.50
33863;DHT22;20158;51.436;-2.742;2023-06-22T09:20:45;34.20;44.40
33863;DHT22;20158;51.436;-2.742;2023-06-22T09:23:11;34.30;44.40
33863;DHT22;20158;51.436;-2.742;2023-06-22T09:25:39;34.40;44.30
33863;DHT22;20158;51.436;-2.742;2023-06-22T09:28:09;34.50;44.10
33863;DHT22;20158;51.436;-2.742;2023-06-22T09:30:35;34.60;43.90
33863;DHT22;20158;51.436;-2.742;2023-06-22T09:33:01;34.70;43.70
33863;DHT22;20158;51.436;-2.742;2023-06-22T09:35:28;34.70;43.50
33863;DHT22;20158;51.436;-2.742;2023-06-22T09:37:54;34.80;43.50
33863;DHT22;20158;51.436;-2.742;2023-06-22T09:40:23;34.80;43.30
33863;DHT22;20158;51.436;-2.742;2023-06-22T09:42:49;34.90;43.20
33863;DHT22;20158;51.436;-2.742;2023-06-22T09:45:18;35.00;43.10
33863;DHT22;20158;51.436;-2.742;2023-06-22T10:13:44;35.10;43.10
33863;DHT22;20158;51.436;-2.742;2023-06-22T10:16:11;35.30;43.10
33863;DHT22;20158;51.436;-2.742;2023-06-22T10:18:36;35.50;42.80
33863;DHT22;20158;51.436;-2.742;2023-06-22T10:21:02;35.60;42.60
33863;DHT22;20158;51.436;-2.742;2023-06-22T10:23:28;35.70;42.40
33863;DHT22;20158;51.436;-2.742;2023-06-22T10:25:54;35.90;42.20
33863;DHT22;20158;51.436;-2.742;2023-06-22T10:28:26;36.00;42.00
33863;DHT22;20158;51.436;-2.742;2023-06-22T10:30:54;36.10;41.90
33863;DHT22;20158;51.436;-2.742;2023-06-22T10:33:20;36.20;41.60
33863;DHT22;20158;51.436;-2.742;2023-06-22T10:35:46;36.20;41.40
33863;DHT22;20158;51.436;-2.742;2023-06-22T10:38:15;36.30;41.40
33863;DHT22;20158;51.436;-2.742;2023-06-22T10:40:47;36.30;41.20
33863;DHT22;20158;51.436;-2.742;2023-06-22T10:43:13;36.40;41.10
33863;DHT22;20158;51.436;-2.742;2023-06-22T10:45:39;36.50;41.10
33863;DHT22;20158;51.436;-2.742;2023-06-22T10:48:05;36.50;41.00
33863;DHT22;20158;51.436;-2.742;2023-06-22T10:50:33;36.60;40.90
33863;DHT22;20158;51.436;-2.742;2023-06-22T10:53:02;36.70;40.90
33863;DHT22;20158;51.436;-2.742;2023-06-22T10:55:28;36.80;40.80
33863;DHT22;20158;51.436;-2.742;2023-06-22T10:57:54;36.90;40.70
33863;DHT22;20158;51.436;-2.742;2023-06-22T11:00:20;36.90;40.60
33863;DHT22;20158;51.436;-2.742;2023-06-22T11:02:47;37.10;40.60
33863;DHT22;20158;51.436;-2.742;2023-06-22T11:05:13;37.20;40.50
33863;DHT22;20158;51.436;-2.742;2023-06-22T11:07:43;37.30;40.40
33863;DHT22;20158;51.436;-2.742;2023-06-22T11:10:10;37.30;40.20
33863;DHT22;20158;51.436;-2.742;2023-06-22T11:12:36;37.40;40.10
33863;DHT22;20158;51.436;-2.742;2023-06-22T11:15:02;37.60;40.10
33863;DHT22;20158;51.436;-2.742;2023-06-22T11:17:29;37.70;40.00
33863;DHT22;20158;51.436;-2.742;2023-06-22T11:19:58;37.80;39.80
33863;DHT22;20158;51.436;-2.742;2023-06-22T11:22:26;37.90;39.80
33863;DHT22;20158;51.436;-2.742;2023-06-22T11:24:52;37.90;39.60
33863;DHT22;20158;51.436;-2.742;2023-06-22T11:27:18;38.00;39.50
33863;DHT22;20158;51.436;-2.742;2023-06-22T11:29:44;38.10;39.40
33863;DHT22;20158;51.436;-2.742;2023-06-22T11:32:15;38.20;39.40
33863;DHT22;20158;51.436;-2.742;2023-06-22T11:34:41;38.30;39.40
33863;DHT22;20158;51.436;-2.742;2023-06-22T11:37:07;38.30;39.20
33863;DHT22;20158;51.436;-2.742;2023-06-22T11:39:34;38.40;39.10
33863;DHT22;20158;51.436;-2.742;2023-06-22T11:42:12;38.40;39.00
33863;DHT22;20158;51.436;-2.742;2023-06-22T11:44:38;38.50;39.00
33863;DHT22;20158;51.436;-2.742;2023-06-22T11:47:04;38.50;38.90
33863;DHT22;20158;51.436;-2.742;2023-06-22T11:49:34;38.50;38.70
33863;DHT22;20158;51.436;-2.742;2023-06-22T11:52:00;38.50;38.70
33863;DHT22;20158;51.436;-2.742;2023-06-22T11:54:26;38.60;38.70
33863;DHT22;20158;51.436;-2.742;2023-06-22T11:56:52;38.60;38.60
33863;DHT22;20158;51.436;-2.742;2023-06-22T11:59:18;38.70;38.60
33863;DHT22;20158;51.436;-2.742;2023-06-22T12:01:47;38.70;38.60
33863;DHT22;20158;51.436;-2.742;2023-06-22T12:04:14;38.80;38.60
33863;DHT22;20158;51.436;-2.742;2023-06-22T12:06:40;38.80;38.50
33863;DHT22;20158;51.436;-2.742;2023-06-22T12:09:08;38.80;38.40
33863;DHT22;20158;51.436;-2.742;2023-06-22T12:11:35;38.90;38.30
33863;DHT22;20158;51.436;-2.742;2023-06-22T12:14:04;38.90;38.30
33863;DHT22;20158;51.436;-2.742;2023-06-22T12:16:30;38.90;38.30
33863;DHT22;20158;51.436;-2.742;2023-06-22T12:18:59;38.90;38.20
33863;DHT22;20158;51.436;-2.742;2023-06-22T12:21:31;39.00;38.20
33863;DHT22;20158;51.436;-2.742;2023-06-22T12:23:57;39.10;38.20
33863;DHT22;20158;51.436;-2.742;2023-06-22T12:26:23;39.10;38.10
33863;DHT22;20158;51.436;-2.742;2023-06-22T12:28:55;39.20;38.10
33863;DHT22;20158;51.436;-2.742;2023-06-22T12:31:21;39.20;38.10
33863;DHT22;20158;51.436;-2.742;2023-06-22T12:33:47;39.20;38.00
33863;DHT22;20158;51.436;-2.742;2023-06-22T12:36:13;39.30;38.00
33863;DHT22;20158;51.436;-2.742;2023-06-22T12:38:42;39.40;38.00
33863;DHT22;20158;51.436;-2.742;2023-06-22T12:41:08;39.30;37.80
33863;DHT22;20158;51.436;-2.742;2023-06-22T12:43:34;39.40;37.90
33863;DHT22;20158;51.436;-2.742;2023-06-22T12:46:00;39.50;37.80
33863;DHT22;20158;51.436;-2.742;2023-06-22T12:48:27;39.50;37.70
33863;DHT22;20158;51.436;-2.742;2023-06-22T12:50:53;39.60;37.70
33863;DHT22;20158;51.436;-2.742;2023-06-22T12:53:19;39.60;37.60
33863;DHT22;20158;51.436;-2.742;2023-06-22T12:55:48;39.70;37.60
33863;DHT22;20158;51.436;-2.742;2023-06-22T12:58:17;39.80;37.60
33863;DHT22;20158;51.436;-2.742;2023-06-22T13:00:43;39.80;37.40
33863;DHT22;20158;51.436;-2.742;2023-06-22T13:03:11;39.90;37.40
33863;DHT22;20158;51.436;-2.742;2023-06-22T13:05:37;39.90;37.30
33863;DHT22;20158;51.436;-2.742;2023-06-22T13:08:04;40.00;37.30
33863;DHT22;20158;51.436;-2.742;2023-06-22T13:10:30;40.10;37.20
33863;DHT22;20158;51.436;-2.742;2023-06-22T13:12:55;40.20;37.20
33863;DHT22;20158;51.436;-2.742;2023-06-22T13:15:30;40.20;37.10
33863;DHT22;20158;51.436;-2.742;2023-06-22T13:18:04;40.30;37.00
33863;DHT22;20158;51.436;-2.742;2023-06-22T13:20:34;40.30;36.90
33863;DHT22;20158;51.436;-2.742;2023-06-22T13:23:05;40.40;36.90
33863;DHT22;20158;51.436;-2.742;2023-06-22T13:25:31;40.50;36.80
33863;DHT22;20158;51.436;-2.742;2023-06-22T13:27:57;40.60;36.80
33863;DHT22;20158;51.436;-2.742;2023-06-22T13:30:23;40.70;36.80
33863;DHT22;20158;51.436;-2.742;2023-06-22T13:32:55;40.70;36.60
33863;DHT22;20158;51.436;-2.742;2023-06-22T13:35:22;40.80;36.70
33863;DHT22;20158;51.436;-2.742;2023-06-22T13:37:48;40.80;36.50
33863;DHT22;20158;51.436;-2.742;2023-06-22T13:40:16;40.90;36.50
33863;DHT22;20158;51.436;-2.742;2023-06-22T13:42:42;41.00;36.40
33863;DHT22;20158;51.436;-2.742;2023-06-22T13:45:08;41.10;36.40
33863;DHT22;20158;51.436;-2.742;2023-06-22T13:47:35;41.20;36.40
33863;DHT22;20158;51.436;-2.742;2023-06-22T13:50:01;41.20;36.30
33863;DHT22;20158;51.436;-2.742;2023-06-22T13:52:27;41.30;36.30
33863;DHT22;20158;51.436;-2.742;2023-06-22T13:54:55;41.50;36.30
33863;DHT22;20158;51.436;-2.742;2023-06-22T13:57:21;41.50;36.20
33863;DHT22;20158;51.436;-2.742;2023-06-22T13:59:47;41.60;36.20
33863;DHT22;20158;51.436;-2.742;2023-06-22T14:02:22;41.70;36.10
33863;DHT22;20158;51.436;-2.742;2023-06-22T14:04:48;41.70;36.10
33863;DHT22;20158;51.436;-2.742;2023-06-22T14:07:17;41.70;36.10
33863;DHT22;20158;51.436;-2.742;2023-06-22T14:09:48;41.70;36.10
33863;DHT22;20158;51.436;-2.742;2023-06-22T14:12:40;41.80;36.10
33863;DHT22;20158;51.436;-2.742;2023-06-22T14:15:06;41.80;36.00
33863;DHT22;20158;51.436;-2.742;2023-06-22T14:17:35;42.00;36.00
33863;DHT22;20158;51.436;-2.742;2023-06-22T14:20:01;42.00;35.90
33863;DHT22;20158;51.436;-2.742;2023-06-22T14:22:30;42.10;35.80
33863;DHT22;20158;51.436;-2.742;2023-06-22T14:24:56;42.20;35.80
33863;DHT22;20158;51.436;-2.742;2023-06-22T14:27:23;42.20;35.70
33863;DHT22;20158;51.436;-2.742;2023-06-22T14:29:49;42.30;35.60
33863;DHT22;20158;51.436;-2.742;2023-06-22T14:32:16;42.40;35.60
33863;DHT22;20158;51.436;-2.742;2023-06-22T14:34:44;42.40;35.40
33863;DHT22;20158;51.436;-2.742;2023-06-22T14:37:10;42.60;35.50
33863;DHT22;20158;51.436;-2.742;2023-06-22T14:39:38;42.60;35.30
33863;DHT22;20158;51.436;-2.742;2023-06-22T14:42:05;42.70;35.30
33863;DHT22;20158;51.436;-2.742;2023-06-22T14:44:31;42.80;35.20
33863;DHT22;20158;51.436;-2.742;2023-06-22T14:46:57;42.80;35.10
33863;DHT22;20158;51.436;-2.742;2023-06-22T14:49:24;42.80;35.00
33863;DHT22;20158;51.436;-2.742;2023-06-22T14:51:49;42.90;35.10
33863;DHT22;20158;51.436;-2.742;2023-06-22T14:54:18;42.90;35.00
33863;DHT22;20158;51.436;-2.742;2023-06-22T14:56:50;43.00;35.00
33863;DHT22;20158;51.436;-2.742;2023-06-22T14:59:16;43.00;34.90
33863;DHT22;20158;51.436;-2.742;2023-06-22T15:01:42;43.10;34.90
33863;DHT22;20158;51.436;-2.742;2023-06-22T15:04:08;43.10;34.80
33863;DHT22;20158;51.436;-2.742;2023-06-22T15:06:36;43.20;34.70
33863;DHT22;20158;51.436;-2.742;2023-06-22T15:09:02;43.20;34.60
33863;DHT22;20158;51.436;-2.742;2023-06-22T15:11:28;43.30;34.60
33863;DHT22;20158;51.436;-2.742;2023-06-22T15:13:58;43.40;34.50
33863;DHT22;20158;51.436;-2.742;2023-06-22T15:16:25;43.50;34.30
33863;DHT22;20158;51.436;-2.742;2023-06-22T15:18:51;43.40;34.20
33863;DHT22;20158;51.436;-2.742;2023-06-22T15:21:23;43.50;34.30
33863;DHT22;20158;51.436;-2.742;2023-06-22T15:23:49;43.70;34.20
33863;DHT22;20158;51.436;-2.742;2023-06-22T15:26:15;43.70;34.10
33863;DHT22;20158;51.436;-2.742;2023-06-22T15:28:41;43.80;34.00
33863;DHT22;20158;51.436;-2.742;2023-06-22T15:31:07;43.90;33.80
33863;DHT22;20158;51.436;-2.742;2023-06-22T15:33:34;44.00;33.80
33863;DHT22;20158;51.436;-2.742;2023-06-22T15:36:00;43.90;33.80
33863;DHT22;20158;51.436;-2.742;2023-06-22T15:38:30;43.80;33.90
33863;DHT22;20158;51.436;-2.742;2023-06-22T15:40:57;43.70;34.00
33863;DHT22;20158;51.436;-2.742;2023-06-22T15:43:23;43.60;34.00
33863;DHT22;20158;51.436;-2.742;2023-06-22T15:45:52;43.60;34.00
33863;DHT22;20158;51.436;-2.742;2023-06-22T15:48:20;43.70;34.00
33863;DHT22;20158;51.436;-2.742;2023-06-22T15:50:46;43.80;34.00
33863;DHT22;20158;51.436;-2.742;2023-06-22T15:53:12;43.90;33.90
33863;DHT22;20158;51.436;-2.742;2023-06-22T15:55:38;43.90;33.80